createdAt,value
2023-02-28T00:01:38.729Z,12.13
2023-02-28T00:04:10.271Z,13.67
2023-02-28T00:06:38.752Z,13.73
2023-02-28T00:09:08.868Z,12.90
2023-02-28T00:11:38.875Z,12.60
2023-02-28T00:14:07.706Z,12.50
2023-02-28T00:16:36.212Z,11.77
2023-02-28T00:19:04.999Z,12.37
2023-02-28T00:21:33.514Z,12.97
2023-02-28T00:24:02.624Z,11.17
2023-02-28T00:26:33.005Z,11.77
2023-02-28T00:29:01.859Z,12.77
2023-02-28T00:31:31.012Z,12.93
2023-02-28T00:33:59.873Z,13.20
2023-02-28T00:36:28.378Z,14.80
2023-02-28T00:38:57.447Z,14.30
2023-02-28T00:41:25.926Z,13.70
2023-02-28T00:43:56.182Z,13.00
2023-02-28T00:46:24.880Z,14.80
2023-02-28T00:48:53.606Z,14.33
2023-02-28T00:51:22.142Z,14.80
2023-02-28T00:53:50.872Z,14.30
2023-02-28T00:56:19.392Z,15.37
2023-02-28T00:58:49.801Z,13.90
2023-02-28T01:01:19.653Z,13.50
2023-02-28T01:03:48.427Z,15.20
2023-02-28T01:06:16.877Z,13.23
2023-02-28T01:08:45.855Z,14.50
2023-02-28T01:11:16.722Z,15.10
2023-02-28T01:13:46.902Z,14.27
2023-02-28T01:16:15.819Z,13.77
2023-02-28T01:18:46.372Z,14.00
2023-02-28T01:21:18.365Z,12.10
2023-02-28T01:23:48.156Z,13.87
2023-02-28T01:26:22.304Z,15.67
2023-02-28T01:28:52.551Z,14.40
2023-02-28T01:31:22.731Z,13.23
2023-02-28T01:33:53.230Z,13.00
2023-02-28T01:36:24.136Z,13.33
2023-02-28T01:38:53.774Z,15.00
2023-02-28T01:41:24.655Z,14.37
2023-02-28T01:44:06.334Z,14.70
2023-02-28T01:46:36.779Z,15.00
2023-02-28T01:49:11.838Z,14.13
2023-02-28T01:51:47.307Z,14.33
2023-02-28T01:54:20.286Z,14.73
2023-02-28T01:56:53.614Z,14.07
2023-02-28T01:59:26.968Z,14.17
2023-02-28T02:01:56.449Z,14.33
2023-02-28T02:04:34.584Z,14.30
2023-02-28T02:07:03.473Z,14.40
2023-02-28T02:09:32.693Z,12.93
2023-02-28T02:12:09.105Z,14.13
2023-02-28T02:14:52.349Z,13.13
2023-02-28T02:17:28.483Z,14.33
2023-02-28T02:20:28.477Z,12.57
2023-02-28T02:23:29.144Z,13.37
2023-02-28T02:26:06.273Z,13.27
2023-02-28T02:29:06.221Z,13.73
2023-02-28T02:32:11.551Z,14.10
2023-02-28T02:35:03.998Z,14.27
2023-02-28T02:37:41.058Z,11.70
2023-02-28T02:40:16.304Z,13.07
2023-02-28T02:42:53.562Z,13.47
2023-02-28T02:45:28.246Z,13.47
2023-02-28T02:48:01.247Z,13.77
2023-02-28T02:50:38.785Z,13.43
2023-02-28T02:53:10.246Z,14.57
2023-02-28T02:55:43.235Z,12.87
2023-02-28T02:58:16.439Z,13.73
2023-02-28T03:00:48.584Z,13.10
2023-02-28T03:03:21.666Z,14.30
2023-02-28T03:05:52.864Z,13.23
2023-02-28T03:08:21.621Z,16.13
2023-02-28T03:10:52.643Z,13.40
2023-02-28T03:13:53.119Z,14.77
2023-02-28T03:16:35.291Z,16.20
2023-02-28T03:19:22.935Z,14.97
2023-02-28T03:22:05.951Z,15.10
2023-02-28T03:24:40.053Z,13.93
2023-02-28T03:27:13.716Z,15.07
2023-02-28T03:29:48.111Z,15.43
2023-02-28T03:32:22.757Z,14.80
2023-02-28T03:35:01.296Z,14.37
2023-02-28T03:37:35.639Z,15.67
2023-02-28T03:40:09.717Z,15.47
2023-02-28T03:42:40.142Z,14.10
2023-02-28T03:45:15.744Z,14.80
2023-02-28T03:47:49.500Z,14.70
2023-02-28T03:50:23.603Z,14.97
2023-02-28T03:53:02.054Z,15.53
2023-02-28T03:55:36.792Z,15.70
2023-02-28T03:58:13.460Z,13.97
2023-02-28T04:00:47.783Z,14.57
2023-02-28T04:03:16.604Z,14.63
2023-02-28T04:05:54.643Z,14.73
2023-02-28T04:08:25.074Z,14.43
2023-02-28T04:11:02.871Z,14.37
2023-02-28T04:13:31.425Z,15.07
2023-02-28T04:16:00.208Z,14.87
2023-02-28T04:18:28.712Z,15.67
2023-02-28T04:20:57.440Z,13.90
2023-02-28T04:23:27.359Z,16.43
2023-02-28T04:25:57.799Z,14.33
2023-02-28T04:28:26.345Z,14.40
2023-02-28T04:30:59.156Z,16.10
2023-02-28T04:33:27.703Z,15.33
2023-02-28T04:36:04.568Z,14.27
2023-02-28T04:38:36.015Z,15.10
2023-02-28T04:41:06.213Z,13.30
2023-02-28T04:43:34.997Z,14.23
2023-02-28T04:46:06.128Z,15.70
2023-02-28T04:48:36.741Z,15.20
2023-02-28T04:51:07.356Z,14.43
2023-02-28T04:53:38.068Z,15.50
2023-02-28T04:56:08.083Z,13.97
2023-02-28T04:58:36.913Z,16.17
2023-02-28T05:01:13.659Z,14.80
2023-02-28T05:03:42.638Z,15.33
2023-02-28T05:06:12.737Z,15.80
2023-02-28T05:08:43.247Z,15.03
2023-02-28T05:11:17.726Z,14.13
2023-02-28T05:13:46.294Z,14.97
2023-02-28T05:16:15.608Z,14.43
2023-02-28T05:18:44.142Z,14.43
2023-02-28T05:21:28.206Z,15.93
2023-02-28T05:23:59.668Z,14.13
2023-02-28T05:26:29.050Z,16.20
2023-02-28T05:28:57.718Z,13.20
2023-02-28T05:31:26.579Z,13.67
2023-02-28T05:33:55.264Z,15.37
2023-02-28T05:36:24.198Z,14.03
2023-02-28T05:38:53.109Z,13.77
2023-02-28T05:41:23.342Z,14.60
2023-02-28T05:43:51.806Z,14.07
2023-02-28T05:46:20.596Z,14.00
2023-02-28T05:48:50.277Z,13.90
2023-02-28T05:51:19.513Z,13.97
2023-02-28T05:53:49.178Z,15.00
2023-02-28T05:56:18.146Z,13.97
2023-02-28T05:58:48.029Z,13.97
2023-02-28T06:01:25.537Z,14.77
2023-02-28T06:03:54.238Z,14.17
2023-02-28T06:06:23.367Z,14.77
2023-02-28T06:08:51.808Z,15.30
2023-02-28T06:11:21.390Z,15.87
2023-02-28T06:13:51.266Z,14.80
2023-02-28T06:16:20.117Z,16.07
2023-02-28T06:18:48.583Z,17.37
2023-02-28T06:21:17.365Z,15.03
2023-02-28T06:23:45.806Z,14.50
2023-02-28T06:26:14.555Z,15.37
2023-02-28T06:28:43.066Z,14.80
2023-02-28T06:31:14.864Z,15.67
2023-02-28T06:33:44.533Z,14.87
2023-02-28T06:36:15.284Z,14.33
2023-02-28T06:38:44.486Z,13.67
2023-02-28T06:41:13.642Z,15.57
2023-02-28T06:43:44.534Z,12.23
2023-02-28T06:46:16.292Z,13.53
2023-02-28T06:48:46.268Z,14.10
2023-02-28T06:51:16.822Z,13.87
2023-02-28T06:53:46.358Z,15.13
2023-02-28T06:56:16.844Z,15.33
2023-02-28T06:58:49.380Z,13.67
2023-02-28T07:01:20.071Z,13.90
2023-02-28T07:03:53.043Z,15.60
2023-02-28T07:06:23.527Z,14.27
2023-02-28T07:08:53.216Z,15.37
2023-02-28T07:11:23.426Z,15.83
2023-02-28T07:13:52.407Z,13.87
2023-02-28T07:16:22.958Z,14.60
2023-02-28T07:18:51.728Z,15.13
2023-02-28T07:21:20.466Z,16.70
2023-02-28T07:23:49.009Z,15.53
2023-02-28T07:26:19.980Z,16.47
2023-02-28T07:28:50.480Z,15.93
2023-02-28T07:31:20.317Z,17.93
2023-02-28T07:33:50.270Z,15.20
2023-02-28T07:36:20.660Z,14.60
2023-02-28T07:38:51.150Z,15.27
2023-02-28T07:41:22.485Z,14.90
2023-02-28T07:43:51.094Z,14.17
2023-02-28T07:46:22.290Z,14.53
2023-02-28T07:48:52.306Z,15.53
2023-02-28T07:51:22.029Z,14.50
2023-02-28T07:53:50.778Z,17.40
2023-02-28T07:56:19.506Z,16.20
2023-02-28T07:58:48.108Z,17.13
2023-02-28T08:01:16.835Z,16.97
2023-02-28T08:03:45.527Z,15.07
2023-02-28T08:06:20.603Z,17.20
2023-02-28T08:08:49.643Z,17.63
2023-02-28T08:11:19.284Z,16.93
2023-02-28T08:13:48.170Z,16.77
2023-02-28T08:16:22.306Z,17.10
2023-02-28T08:18:51.708Z,16.70
2023-02-28T08:21:22.589Z,17.60
2023-02-28T08:23:51.959Z,16.73
2023-02-28T08:26:21.253Z,18.70
2023-02-28T08:28:49.787Z,17.57
2023-02-28T08:31:19.237Z,19.07
2023-02-28T08:33:49.655Z,18.30
2023-02-28T08:36:18.852Z,18.63
2023-02-28T08:38:48.794Z,19.03
2023-02-28T08:41:17.941Z,18.23
2023-02-28T08:43:46.382Z,19.67
2023-02-28T08:46:16.584Z,20.33
2023-02-28T08:48:45.156Z,18.27
2023-02-28T08:51:17.391Z,19.40
2023-02-28T08:53:46.843Z,21.40
2023-02-28T08:56:18.409Z,20.23
2023-02-28T08:58:48.368Z,17.40
2023-02-28T09:01:19.273Z,18.70
2023-02-28T09:03:49.557Z,16.67
2023-02-28T09:06:20.078Z,18.10
2023-02-28T09:08:48.698Z,18.30
2023-02-28T09:11:19.650Z,17.13
2023-02-28T09:13:48.625Z,17.80
2023-02-28T09:16:18.403Z,16.83
2023-02-28T09:18:47.682Z,18.13
2023-02-28T09:21:18.928Z,19.40
2023-02-28T09:23:49.447Z,17.77
2023-02-28T09:26:21.859Z,17.33
2023-02-28T09:28:50.513Z,17.40
2023-02-28T09:31:22.680Z,16.30
2023-02-28T09:33:52.135Z,15.90
2023-02-28T09:36:21.109Z,16.87
2023-02-28T09:38:52.352Z,15.77
2023-02-28T09:41:25.224Z,16.43
2023-02-28T09:43:57.909Z,15.60
2023-02-28T09:46:36.864Z,14.17
2023-02-28T09:49:09.196Z,14.20
2023-02-28T09:51:46.596Z,14.40
2023-02-28T09:54:19.748Z,15.23
2023-02-28T09:56:54.409Z,14.00
2023-02-28T09:59:54.131Z,15.83
2023-02-28T10:02:49.000Z,14.00
2023-02-28T10:05:20.881Z,14.57
2023-02-28T10:08:06.013Z,13.80
2023-02-28T10:10:39.653Z,13.03
2023-02-28T10:13:22.083Z,13.27
2023-02-28T10:15:54.411Z,15.47
2023-02-28T10:18:27.515Z,12.87
2023-02-28T10:20:58.180Z,13.27
2023-02-28T10:23:30.258Z,10.60
2023-02-28T10:26:02.491Z,11.50
2023-02-28T10:28:33.192Z,11.90
2023-02-28T10:31:02.165Z,10.97
2023-02-28T10:33:33.424Z,9.67
2023-02-28T10:36:02.855Z,9.07
2023-02-28T10:38:35.997Z,9.57
2023-02-28T10:41:09.315Z,9.13
2023-02-28T10:43:40.696Z,13.27
2023-02-28T10:46:16.455Z,12.10
2023-02-28T10:48:50.911Z,9.57
2023-02-28T10:51:21.617Z,9.20
2023-02-28T10:54:01.100Z,10.60
2023-02-28T10:56:32.023Z,9.70
2023-02-28T10:59:04.441Z,10.23
2023-02-28T11:01:41.897Z,9.10
2023-02-28T11:04:22.494Z,9.93
2023-02-28T11:06:59.953Z,11.60
2023-02-28T11:09:32.924Z,11.27
2023-02-28T11:12:02.206Z,10.57
2023-02-28T11:14:35.195Z,11.67
2023-02-28T11:17:16.512Z,11.10
2023-02-28T11:19:50.078Z,13.30
2023-02-28T11:22:22.840Z,10.93
2023-02-28T11:24:55.671Z,10.67
2023-02-28T11:27:47.945Z,14.53
2023-02-28T11:30:44.121Z,10.73
2023-02-28T11:33:30.544Z,11.03
2023-02-28T11:36:02.970Z,13.40
2023-02-28T11:38:34.236Z,10.77
2023-02-28T11:41:25.480Z,12.37
2023-02-28T11:44:13.198Z,10.80
2023-02-28T11:46:47.633Z,13.07
2023-02-28T11:49:32.464Z,13.43
2023-02-28T11:52:05.376Z,13.83
2023-02-28T11:54:50.262Z,11.47
2023-02-28T11:57:35.085Z,11.97
2023-02-28T12:00:13.232Z,11.30
2023-02-28T12:03:01.176Z,13.73
2023-02-28T12:05:37.473Z,10.93
2023-02-28T12:08:17.226Z,12.00
2023-02-28T12:10:59.286Z,12.83
2023-02-28T12:13:34.627Z,11.23
2023-02-28T12:16:30.309Z,10.83
2023-02-28T12:19:17.362Z,11.00
2023-02-28T12:22:07.750Z,10.97
2023-02-28T12:24:57.153Z,10.83
2023-02-28T12:27:29.695Z,10.03
2023-02-28T12:30:03.416Z,10.90
2023-02-28T12:32:35.841Z,10.50
2023-02-28T12:35:14.074Z,9.87
2023-02-28T12:37:47.928Z,10.77
2023-02-28T12:40:21.113Z,12.20
2023-02-28T12:42:53.988Z,9.83
2023-02-28T12:45:25.876Z,11.47
2023-02-28T12:48:02.245Z,9.97
2023-02-28T12:50:32.799Z,10.00
2023-02-28T12:53:04.938Z,9.53
2023-02-28T12:55:43.161Z,9.90
2023-02-28T12:58:18.311Z,10.77
2023-02-28T13:01:05.057Z,8.70
2023-02-28T13:03:54.781Z,9.93
2023-02-28T13:06:50.648Z,8.80
2023-02-28T13:09:20.054Z,9.13
2023-02-28T13:11:52.020Z,6.87
2023-02-28T13:14:27.633Z,7.70
2023-02-28T13:17:05.519Z,7.57
2023-02-28T13:19:36.636Z,7.53
2023-02-28T13:22:07.730Z,7.30
2023-02-28T13:24:54.228Z,8.50
2023-02-28T13:27:26.931Z,7.57
2023-02-28T13:29:55.739Z,8.07
2023-02-28T13:32:45.430Z,8.10
2023-02-28T13:35:50.417Z,8.00
2023-02-28T13:38:36.900Z,7.57
2023-02-28T13:41:43.032Z,7.37
2023-02-28T13:44:13.026Z,7.37
2023-02-28T13:47:14.954Z,6.97
2023-02-28T13:49:44.188Z,7.27
2023-02-28T13:52:20.270Z,6.57
2023-02-28T13:55:14.376Z,6.90
2023-02-28T13:57:54.803Z,7.30
2023-02-28T14:00:37.562Z,7.50
2023-02-28T14:03:25.404Z,7.07
2023-02-28T14:06:26.642Z,7.23
2023-02-28T14:08:59.113Z,6.77
2023-02-28T14:11:33.433Z,7.60
2023-02-28T14:14:03.277Z,6.47
2023-02-28T14:16:41.468Z,8.13
2023-02-28T14:19:16.246Z,9.10
2023-02-28T14:22:03.991Z,7.47
2023-02-28T14:24:53.688Z,7.77
2023-02-28T14:27:35.833Z,8.13
2023-02-28T14:30:29.074Z,7.80
2023-02-28T14:33:07.664Z,6.67
2023-02-28T14:35:52.626Z,7.13
2023-02-28T14:38:25.899Z,7.60
2023-02-28T14:40:57.094Z,6.03
2023-02-28T14:43:28.831Z,6.03
2023-02-28T14:46:00.292Z,5.87
2023-02-28T14:48:30.099Z,6.10
2023-02-28T14:51:00.773Z,6.90
2023-02-28T14:53:37.022Z,6.93
2023-02-28T14:56:06.833Z,7.77
2023-02-28T14:58:37.380Z,7.60
2023-02-28T15:01:06.578Z,7.00
2023-02-28T15:03:36.442Z,7.23
2023-02-28T15:06:07.304Z,7.93
2023-02-28T15:08:37.359Z,6.93
2023-02-28T15:11:09.860Z,7.23
2023-02-28T15:13:43.191Z,7.27
2023-02-28T15:16:15.019Z,6.60
2023-02-28T15:18:49.572Z,7.53
2023-02-28T15:21:20.569Z,6.03
2023-02-28T15:23:52.910Z,8.67
2023-02-28T15:26:27.994Z,9.87
2023-02-28T15:29:02.313Z,6.97
2023-02-28T15:31:46.859Z,7.87
2023-02-28T15:34:26.472Z,9.43
2023-02-28T15:36:57.112Z,7.40
2023-02-28T15:39:30.070Z,9.50
2023-02-28T15:42:13.662Z,9.30
2023-02-28T15:44:44.135Z,9.47
2023-02-28T15:47:21.306Z,9.07
2023-02-28T15:49:53.977Z,8.90
2023-02-28T15:52:26.656Z,9.77
2023-02-28T15:54:55.717Z,9.93
2023-02-28T15:57:27.467Z,10.37
2023-02-28T16:00:00.254Z,10.17
2023-02-28T16:02:34.298Z,9.90
2023-02-28T16:05:29.043Z,9.53
2023-02-28T16:07:58.741Z,9.97
2023-02-28T16:10:29.544Z,10.60
2023-02-28T16:12:59.360Z,10.73
2023-02-28T16:15:33.054Z,9.60
2023-02-28T16:18:01.593Z,10.23
2023-02-28T16:20:32.684Z,12.13
2023-02-28T16:23:02.555Z,11.87
2023-02-28T16:25:37.072Z,10.50
2023-02-28T16:28:08.684Z,9.80
2023-02-28T16:30:39.017Z,10.63
2023-02-28T16:33:07.609Z,10.07
2023-02-28T16:35:36.439Z,10.70
2023-02-28T16:38:05.097Z,9.70
2023-02-28T16:40:37.821Z,10.00
2023-02-28T16:43:10.313Z,9.03
2023-02-28T16:45:40.488Z,11.03
2023-02-28T16:48:14.513Z,11.23
2023-02-28T16:50:45.160Z,10.47
2023-02-28T16:53:14.515Z,10.80
2023-02-28T16:55:43.645Z,10.40
2023-02-28T16:58:17.011Z,10.97
2023-02-28T17:00:47.165Z,12.00
2023-02-28T17:03:32.681Z,11.27
2023-02-28T17:06:03.327Z,11.40
2023-02-28T17:08:33.197Z,12.60
2023-02-28T17:11:03.320Z,11.73
2023-02-28T17:13:31.838Z,11.73
2023-02-28T17:16:01.996Z,11.83
2023-02-28T17:18:34.679Z,12.77
2023-02-28T17:21:03.529Z,12.37
2023-02-28T17:23:32.135Z,11.50
2023-02-28T17:26:00.978Z,12.83
2023-02-28T17:28:29.564Z,13.47
2023-02-28T17:30:58.467Z,14.53
2023-02-28T17:33:28.348Z,13.23
2023-02-28T17:35:57.635Z,13.23
2023-02-28T17:38:26.133Z,13.73
2023-02-28T17:40:58.142Z,12.80
2023-02-28T17:43:27.080Z,13.10
2023-02-28T17:45:56.516Z,13.90
2023-02-28T17:48:25.558Z,12.43
2023-02-28T17:50:56.040Z,14.90
2023-02-28T17:53:24.683Z,12.80
2023-02-28T17:55:53.571Z,14.00
2023-02-28T17:58:22.277Z,13.67
2023-02-28T18:00:54.817Z,15.97
2023-02-28T18:03:25.186Z,17.07
2023-02-28T18:05:57.762Z,17.00
2023-02-28T18:08:26.832Z,15.87
2023-02-28T18:10:55.828Z,15.00
2023-02-28T18:13:24.356Z,13.60
2023-02-28T18:15:53.775Z,14.07
2023-02-28T18:18:22.364Z,14.80
2023-02-28T18:20:54.073Z,14.47
2023-02-28T18:23:24.171Z,14.07
2023-02-28T18:25:54.050Z,14.60
2023-02-28T18:28:22.681Z,13.33
2023-02-28T18:30:52.962Z,14.80
2023-02-28T18:33:22.899Z,14.03
2023-02-28T18:35:57.731Z,14.07
2023-02-28T18:38:28.899Z,13.90
2023-02-28T18:41:00.923Z,13.80
2023-02-28T18:43:31.188Z,14.00
2023-02-28T18:46:04.358Z,14.50
2023-02-28T18:48:33.075Z,12.67
2023-02-28T18:51:07.892Z,14.40
2023-02-28T18:53:38.551Z,14.93
2023-02-28T18:56:09.218Z,14.80
2023-02-28T18:58:37.797Z,15.83
2023-02-28T19:01:17.310Z,15.43
2023-02-28T19:03:46.615Z,15.13
2023-02-28T19:06:16.502Z,15.93
2023-02-28T19:08:47.368Z,17.33
2023-02-28T19:11:19.479Z,23.60
2023-02-28T19:13:48.487Z,30.87
2023-02-28T19:16:19.474Z,31.97
2023-02-28T19:18:48.245Z,28.23
2023-02-28T19:21:19.469Z,32.00
2023-02-28T19:23:49.666Z,35.23
2023-02-28T19:26:20.944Z,34.87
2023-02-28T19:28:50.011Z,41.77
2023-02-28T19:31:20.894Z,50.50
2023-02-28T19:33:51.934Z,47.93
2023-02-28T19:36:21.322Z,43.90
2023-02-28T19:38:51.719Z,45.37
2023-02-28T19:41:20.889Z,39.13
2023-02-28T19:43:50.552Z,41.70
2023-02-28T19:46:20.293Z,35.40
2023-02-28T19:48:49.008Z,37.57
2023-02-28T19:53:52.954Z,44.50
2023-02-28T19:56:23.226Z,38.90
2023-02-28T19:58:51.837Z,34.87
2023-02-28T20:01:21.462Z,42.90
2023-02-28T20:03:51.376Z,48.83
2023-02-28T20:06:21.848Z,49.70
2023-02-28T20:08:51.781Z,51.53
2023-02-28T20:11:22.048Z,49.83
2023-02-28T20:13:53.657Z,48.30
2023-02-28T20:16:22.620Z,53.43
2023-02-28T20:18:52.380Z,59.73
2023-02-28T20:21:21.496Z,55.70
2023-02-28T20:23:50.280Z,64.33
2023-02-28T20:26:20.268Z,70.03
2023-02-28T20:28:50.580Z,81.93
2023-02-28T20:31:26.179Z,114.70
2023-02-28T20:33:54.816Z,109.60
2023-02-28T20:36:24.060Z,112.80
2023-02-28T20:38:53.250Z,101.77
2023-02-28T20:41:22.475Z,94.80
2023-02-28T20:43:58.055Z,86.97
2023-02-28T20:46:29.992Z,70.20
2023-02-28T20:48:59.208Z,54.27
2023-02-28T20:51:28.112Z,48.50
2023-02-28T20:53:56.808Z,52.60
2023-02-28T20:56:25.684Z,65.47
2023-02-28T20:58:57.541Z,67.50
2023-02-28T21:01:28.325Z,65.03
2023-02-28T21:03:58.941Z,66.27
2023-02-28T21:06:29.773Z,63.03
2023-02-28T21:08:59.310Z,53.27
2023-02-28T21:11:30.419Z,63.67
2023-02-28T21:14:02.393Z,64.10
2023-02-28T21:16:31.625Z,60.50
2023-02-28T21:19:04.665Z,54.87
2023-02-28T21:21:35.287Z,54.70
2023-02-28T21:24:03.968Z,52.00
2023-02-28T21:26:33.297Z,62.37
2023-02-28T21:29:04.164Z,46.23
2023-02-28T21:31:35.406Z,48.97
2023-02-28T21:34:05.472Z,63.23
2023-02-28T21:36:39.628Z,83.40
2023-02-28T21:39:10.814Z,72.27
2023-02-28T21:41:39.647Z,58.07
2023-02-28T21:44:10.684Z,58.83
2023-02-28T21:46:40.758Z,57.23
2023-02-28T21:49:09.326Z,57.83
2023-02-28T21:51:39.070Z,62.57
2023-02-28T21:54:08.423Z,66.47
2023-02-28T21:56:37.286Z,71.43
2023-02-28T21:59:09.314Z,73.87
2023-02-28T22:01:43.424Z,73.63
2023-02-28T22:04:21.393Z,73.83
2023-02-28T22:06:52.841Z,68.30
2023-02-28T22:09:22.336Z,63.33
2023-02-28T22:11:51.297Z,53.43
2023-02-28T22:14:20.318Z,49.40
2023-02-28T22:16:54.189Z,54.37
2023-02-28T22:19:24.181Z,51.30
2023-02-28T22:21:54.759Z,41.27
2023-02-28T22:24:24.585Z,39.33
2023-02-28T22:26:54.133Z,37.07
2023-02-28T22:29:22.876Z,44.90
2023-02-28T22:31:53.147Z,55.43
2023-02-28T22:34:21.951Z,69.33
2023-02-28T22:36:50.724Z,65.90
2023-02-28T22:39:19.336Z,66.20
2023-02-28T22:41:48.473Z,61.57
2023-02-28T22:44:17.436Z,59.87
2023-02-28T22:46:46.158Z,67.27
2023-02-28T22:49:16.408Z,61.80
2023-02-28T22:51:45.352Z,59.33
2023-02-28T22:54:13.977Z,66.37
2023-02-28T22:56:43.053Z,58.57
2023-02-28T22:59:15.560Z,52.87
2023-02-28T23:01:44.909Z,57.30
2023-02-28T23:04:15.014Z,54.20
2023-02-28T23:06:45.136Z,59.00
2023-02-28T23:09:18.368Z,61.20
2023-02-28T23:11:49.767Z,48.43
2023-02-28T23:14:20.779Z,49.90
2023-02-28T23:16:51.330Z,51.30
2023-02-28T23:19:24.671Z,58.03
2023-02-28T23:21:53.803Z,60.43
2023-02-28T23:24:24.424Z,64.37
2023-02-28T23:26:54.860Z,64.00
2023-02-28T23:29:25.020Z,66.70
2023-02-28T23:31:54.056Z,68.13
2023-02-28T23:34:26.540Z,65.57
2023-02-28T23:36:56.639Z,61.13
2023-02-28T23:39:26.943Z,66.23
2023-02-28T23:41:56.420Z,69.80
2023-02-28T23:44:25.780Z,70.73
2023-02-28T23:46:55.632Z,70.73
2023-02-28T23:49:25.750Z,64.07
2023-02-28T23:51:54.956Z,60.53
2023-02-28T23:54:23.556Z,61.10
2023-02-28T23:56:52.420Z,61.97
2023-02-28T23:59:20.949Z,64.27
